sensor_id;sensor_type;location;lat;lon;timestamp;P1;durP1;ratioP1;P2;durP2;ratioP2
14326;SDS011;7247;53.330;-1.180;2023-07-29T00:01:34;3.43;;;2.30;;
14326;SDS011;7247;53.330;-1.180;2023-07-29T00:04:00;2.83;;;2.20;;
14326;SDS011;7247;53.330;-1.180;2023-07-29T00:06:27;3.83;;;2.30;;
14326;SDS011;7247;53.330;-1.180;2023-07-29T00:08:53;2.37;;;2.10;;
14326;SDS011;7247;53.330;-1.180;2023-07-29T00:11:20;3.00;;;1.97;;
14326;SDS011;7247;53.330;-1.180;2023-07-29T00:13:46;3.07;;;2.30;;
14326;SDS011;7247;53.330;-1.180;2023-07-29T00:16:15;4.63;;;2.20;;
14326;SDS011;7247;53.330;-1.180;2023-07-29T00:18:43;3.23;;;2.00;;
14326;SDS011;7247;53.330;-1.180;2023-07-29T00:21:10;3.67;;;2.07;;
14326;SDS011;7247;53.330;-1.180;2023-07-29T00:23:36;2.90;;;2.20;;
14326;SDS011;7247;53.330;-1.180;2023-07-29T00:26:03;3.07;;;2.70;;
14326;SDS011;7247;53.330;-1.180;2023-07-29T00:28:29;4.53;;;2.77;;
14326;SDS011;7247;53.330;-1.180;2023-07-29T00:30:55;3.93;;;2.37;;
14326;SDS011;7247;53.330;-1.180;2023-07-29T00:33:22;5.67;;;2.30;;
14326;SDS011;7247;53.330;-1.180;2023-07-29T00:35:49;3.27;;;2.27;;
14326;SDS011;7247;53.330;-1.180;2023-07-29T00:38:16;3.07;;;2.00;;
14326;SDS011;7247;53.330;-1.180;2023-07-29T00:40:42;4.63;;;2.30;;
14326;SDS011;7247;53.330;-1.180;2023-07-29T00:43:09;4.83;;;1.93;;
14326;SDS011;7247;53.330;-1.180;2023-07-29T00:45:35;3.13;;;1.90;;
14326;SDS011;7247;53.330;-1.180;2023-07-29T00:48:02;4.03;;;2.10;;
14326;SDS011;7247;53.330;-1.180;2023-07-29T00:50:29;3.57;;;1.87;;
14326;SDS011;7247;53.330;-1.180;2023-07-29T00:52:58;2.27;;;1.80;;
14326;SDS011;7247;53.330;-1.180;2023-07-29T00:55:24;2.73;;;1.87;;
14326;SDS011;7247;53.330;-1.180;2023-07-29T00:57:51;2.47;;;1.97;;
14326;SDS011;7247;53.330;-1.180;2023-07-29T01:00:19;4.57;;;2.07;;
14326;SDS011;7247;53.330;-1.180;2023-07-29T01:02:46;5.67;;;1.80;;
14326;SDS011;7247;53.330;-1.180;2023-07-29T01:05:13;2.80;;;1.83;;
14326;SDS011;7247;53.330;-1.180;2023-07-29T01:07:43;2.83;;;2.00;;
14326;SDS011;7247;53.330;-1.180;2023-07-29T01:10:14;3.63;;;1.93;;
14326;SDS011;7247;53.330;-1.180;2023-07-29T01:12:47;2.70;;;2.00;;
14326;SDS011;7247;53.330;-1.180;2023-07-29T01:15:16;2.60;;;1.90;;
14326;SDS011;7247;53.330;-1.180;2023-07-29T01:17:43;4.87;;;2.07;;
14326;SDS011;7247;53.330;-1.180;2023-07-29T01:20:13;4.73;;;1.90;;
14326;SDS011;7247;53.330;-1.180;2023-07-29T01:22:40;3.63;;;2.10;;
14326;SDS011;7247;53.330;-1.180;2023-07-29T01:25:08;2.30;;;1.77;;
14326;SDS011;7247;53.330;-1.180;2023-07-29T01:27:35;3.43;;;1.93;;
14326;SDS011;7247;53.330;-1.180;2023-07-29T01:30:02;2.53;;;1.90;;
14326;SDS011;7247;53.330;-1.180;2023-07-29T01:32:30;3.77;;;2.00;;
14326;SDS011;7247;53.330;-1.180;2023-07-29T01:35:00;3.20;;;2.10;;
14326;SDS011;7247;53.330;-1.180;2023-07-29T01:37:27;4.27;;;2.00;;
14326;SDS011;7247;53.330;-1.180;2023-07-29T01:39:55;3.20;;;1.97;;
14326;SDS011;7247;53.330;-1.180;2023-07-29T01:42:24;2.87;;;2.27;;
14326;SDS011;7247;53.330;-1.180;2023-07-29T01:44:51;3.93;;;2.27;;
14326;SDS011;7247;53.330;-1.180;2023-07-29T01:47:17;3.03;;;2.27;;
14326;SDS011;7247;53.330;-1.180;2023-07-29T01:49:43;3.20;;;2.13;;
14326;SDS011;7247;53.330;-1.180;2023-07-29T01:52:10;2.87;;;2.33;;
14326;SDS011;7247;53.330;-1.180;2023-07-29T01:54:36;4.20;;;2.07;;
14326;SDS011;7247;53.330;-1.180;2023-07-29T01:57:03;6.67;;;2.60;;
14326;SDS011;7247;53.330;-1.180;2023-07-29T01:59:31;3.40;;;2.20;;
14326;SDS011;7247;53.330;-1.180;2023-07-29T02:01:57;2.83;;;2.27;;
14326;SDS011;7247;53.330;-1.180;2023-07-29T02:04:24;3.53;;;2.50;;
14326;SDS011;7247;53.330;-1.180;2023-07-29T02:06:50;5.40;;;2.50;;
14326;SDS011;7247;53.330;-1.180;2023-07-29T02:09:16;3.73;;;2.30;;
14326;SDS011;7247;53.330;-1.180;2023-07-29T02:11:43;4.67;;;2.53;;
14326;SDS011;7247;53.330;-1.180;2023-07-29T02:14:09;4.10;;;2.50;;
14326;SDS011;7247;53.330;-1.180;2023-07-29T02:16:37;2.90;;;2.30;;
14326;SDS011;7247;53.330;-1.180;2023-07-29T02:19:04;3.37;;;2.20;;
14326;SDS011;7247;53.330;-1.180;2023-07-29T02:21:30;3.30;;;2.47;;
14326;SDS011;7247;53.330;-1.180;2023-07-29T02:23:56;2.57;;;1.80;;
14326;SDS011;7247;53.330;-1.180;2023-07-29T02:26:23;5.20;;;2.30;;
14326;SDS011;7247;53.330;-1.180;2023-07-29T02:28:49;3.67;;;2.30;;
14326;SDS011;7247;53.330;-1.180;2023-07-29T02:31:16;2.73;;;2.33;;
14326;SDS011;7247;53.330;-1.180;2023-07-29T02:33:44;3.20;;;2.07;;
14326;SDS011;7247;53.330;-1.180;2023-07-29T02:36:11;5.00;;;2.00;;
14326;SDS011;7247;53.330;-1.180;2023-07-29T02:38:37;2.37;;;2.03;;
14326;SDS011;7247;53.330;-1.180;2023-07-29T02:41:04;2.83;;;2.27;;
14326;SDS011;7247;53.330;-1.180;2023-07-29T02:43:30;3.60;;;2.10;;
14326;SDS011;7247;53.330;-1.180;2023-07-29T02:45:57;4.97;;;2.67;;
14326;SDS011;7247;53.330;-1.180;2023-07-29T02:48:24;3.50;;;2.00;;
14326;SDS011;7247;53.330;-1.180;2023-07-29T02:50:52;3.63;;;2.20;;
14326;SDS011;7247;53.330;-1.180;2023-07-29T02:53:18;4.83;;;2.27;;
14326;SDS011;7247;53.330;-1.180;2023-07-29T02:55:45;4.30;;;2.10;;
14326;SDS011;7247;53.330;-1.180;2023-07-29T02:58:11;3.63;;;2.10;;
14326;SDS011;7247;53.330;-1.180;2023-07-29T03:00:37;6.10;;;2.20;;
14326;SDS011;7247;53.330;-1.180;2023-07-29T03:03:06;2.90;;;2.10;;
14326;SDS011;7247;53.330;-1.180;2023-07-29T03:05:33;3.43;;;1.97;;
14326;SDS011;7247;53.330;-1.180;2023-07-29T03:08:00;3.63;;;2.20;;
14326;SDS011;7247;53.330;-1.180;2023-07-29T03:10:27;10.20;;;2.63;;
14326;SDS011;7247;53.330;-1.180;2023-07-29T03:12:54;4.37;;;2.20;;
14326;SDS011;7247;53.330;-1.180;2023-07-29T03:15:23;5.33;;;2.10;;
14326;SDS011;7247;53.330;-1.180;2023-07-29T03:17:49;4.70;;;2.30;;
14326;SDS011;7247;53.330;-1.180;2023-07-29T03:20:15;5.23;;;2.20;;
14326;SDS011;7247;53.330;-1.180;2023-07-29T03:22:42;2.97;;;2.10;;
14326;SDS011;7247;53.330;-1.180;2023-07-29T03:25:10;5.37;;;2.20;;
14326;SDS011;7247;53.330;-1.180;2023-07-29T03:27:37;5.40;;;2.30;;
14326;SDS011;7247;53.330;-1.180;2023-07-29T03:30:05;5.00;;;2.30;;
14326;SDS011;7247;53.330;-1.180;2023-07-29T03:32:32;5.10;;;2.20;;
14326;SDS011;7247;53.330;-1.180;2023-07-29T03:34:58;3.57;;;2.00;;
14326;SDS011;7247;53.330;-1.180;2023-07-29T03:37:25;4.10;;;2.00;;
14326;SDS011;7247;53.330;-1.180;2023-07-29T03:39:51;3.93;;;2.40;;
14326;SDS011;7247;53.330;-1.180;2023-07-29T03:42:19;2.70;;;2.10;;
14326;SDS011;7247;53.330;-1.180;2023-07-29T03:44:45;5.20;;;2.60;;
14326;SDS011;7247;53.330;-1.180;2023-07-29T03:47:12;4.90;;;2.37;;
14326;SDS011;7247;53.330;-1.180;2023-07-29T03:49:38;4.20;;;2.10;;
14326;SDS011;7247;53.330;-1.180;2023-07-29T03:52:05;3.87;;;2.20;;
14326;SDS011;7247;53.330;-1.180;2023-07-29T03:54:32;4.70;;;2.43;;
14326;SDS011;7247;53.330;-1.180;2023-07-29T03:56:58;5.30;;;2.20;;
14326;SDS011;7247;53.330;-1.180;2023-07-29T03:59:26;6.60;;;2.40;;
14326;SDS011;7247;53.330;-1.180;2023-07-29T04:01:52;3.97;;;2.53;;
14326;SDS011;7247;53.330;-1.180;2023-07-29T04:04:19;3.27;;;2.30;;
14326;SDS011;7247;53.330;-1.180;2023-07-29T04:06:45;4.27;;;2.43;;
14326;SDS011;7247;53.330;-1.180;2023-07-29T04:09:12;6.37;;;2.60;;
14326;SDS011;7247;53.330;-1.180;2023-07-29T04:11:38;6.97;;;2.40;;
14326;SDS011;7247;53.330;-1.180;2023-07-29T04:14:05;4.50;;;2.20;;
14326;SDS011;7247;53.330;-1.180;2023-07-29T04:16:32;5.27;;;2.40;;
14326;SDS011;7247;53.330;-1.180;2023-07-29T04:18:59;4.13;;;2.60;;
14326;SDS011;7247;53.330;-1.180;2023-07-29T04:21:25;3.60;;;2.20;;
14326;SDS011;7247;53.330;-1.180;2023-07-29T04:23:52;6.77;;;2.70;;
14326;SDS011;7247;53.330;-1.180;2023-07-29T04:26:18;4.53;;;2.30;;
14326;SDS011;7247;53.330;-1.180;2023-07-29T04:28:44;7.00;;;2.50;;
14326;SDS011;7247;53.330;-1.180;2023-07-29T04:31:11;4.47;;;2.33;;
14326;SDS011;7247;53.330;-1.180;2023-07-29T04:33:39;5.63;;;2.77;;
14326;SDS011;7247;53.330;-1.180;2023-07-29T04:36:05;4.17;;;2.50;;
14326;SDS011;7247;53.330;-1.180;2023-07-29T04:38:32;4.03;;;2.50;;
14326;SDS011;7247;53.330;-1.180;2023-07-29T04:40:58;6.03;;;2.40;;
14326;SDS011;7247;53.330;-1.180;2023-07-29T04:43:26;3.67;;;2.40;;
14326;SDS011;7247;53.330;-1.180;2023-07-29T04:45:53;6.07;;;2.77;;
14326;SDS011;7247;53.330;-1.180;2023-07-29T04:48:19;5.87;;;2.80;;
14326;SDS011;7247;53.330;-1.180;2023-07-29T04:50:47;5.17;;;2.40;;
14326;SDS011;7247;53.330;-1.180;2023-07-29T04:53:13;6.50;;;2.50;;
14326;SDS011;7247;53.330;-1.180;2023-07-29T04:55:41;6.70;;;2.80;;
14326;SDS011;7247;53.330;-1.180;2023-07-29T04:58:07;5.47;;;2.60;;
14326;SDS011;7247;53.330;-1.180;2023-07-29T05:00:33;4.80;;;2.50;;
14326;SDS011;7247;53.330;-1.180;2023-07-29T05:03:00;9.70;;;3.20;;
14326;SDS011;7247;53.330;-1.180;2023-07-29T05:05:27;5.47;;;2.57;;
14326;SDS011;7247;53.330;-1.180;2023-07-29T05:07:55;4.23;;;2.40;;
14326;SDS011;7247;53.330;-1.180;2023-07-29T05:10:21;6.03;;;2.73;;
14326;SDS011;7247;53.330;-1.180;2023-07-29T05:12:48;5.47;;;2.60;;
14326;SDS011;7247;53.330;-1.180;2023-07-29T05:15:14;4.50;;;2.70;;
14326;SDS011;7247;53.330;-1.180;2023-07-29T05:17:40;6.50;;;2.53;;
14326;SDS011;7247;53.330;-1.180;2023-07-29T05:20:07;10.07;;;3.13;;
14326;SDS011;7247;53.330;-1.180;2023-07-29T05:22:34;4.13;;;2.50;;
14326;SDS011;7247;53.330;-1.180;2023-07-29T05:25:02;5.73;;;2.77;;
14326;SDS011;7247;53.330;-1.180;2023-07-29T05:27:28;7.53;;;2.80;;
14326;SDS011;7247;53.330;-1.180;2023-07-29T05:29:55;9.00;;;2.80;;
14326;SDS011;7247;53.330;-1.180;2023-07-29T05:32:21;6.10;;;2.60;;
14326;SDS011;7247;53.330;-1.180;2023-07-29T05:34:48;7.83;;;2.60;;
14326;SDS011;7247;53.330;-1.180;2023-07-29T05:37:14;4.00;;;2.37;;
14326;SDS011;7247;53.330;-1.180;2023-07-29T05:39:41;6.03;;;2.90;;
14326;SDS011;7247;53.330;-1.180;2023-07-29T05:42:08;8.33;;;2.77;;
14326;SDS011;7247;53.330;-1.180;2023-07-29T05:44:35;7.67;;;2.70;;
14326;SDS011;7247;53.330;-1.180;2023-07-29T05:47:01;9.30;;;3.23;;
14326;SDS011;7247;53.330;-1.180;2023-07-29T05:49:28;8.93;;;3.10;;
14326;SDS011;7247;53.330;-1.180;2023-07-29T05:51:54;6.97;;;2.70;;
14326;SDS011;7247;53.330;-1.180;2023-07-29T05:54:20;6.67;;;3.10;;
14326;SDS011;7247;53.330;-1.180;2023-07-29T05:56:47;8.83;;;3.20;;
14326;SDS011;7247;53.330;-1.180;2023-07-29T05:59:15;5.33;;;2.53;;
14326;SDS011;7247;53.330;-1.180;2023-07-29T06:01:41;6.87;;;2.80;;
14326;SDS011;7247;53.330;-1.180;2023-07-29T06:04:08;9.13;;;2.93;;
14326;SDS011;7247;53.330;-1.180;2023-07-29T06:06:34;7.80;;;2.60;;
14326;SDS011;7247;53.330;-1.180;2023-07-29T06:09:01;5.20;;;2.90;;
14326;SDS011;7247;53.330;-1.180;2023-07-29T06:11:27;7.30;;;2.83;;
14326;SDS011;7247;53.330;-1.180;2023-07-29T06:13:53;5.23;;;2.43;;
14326;SDS011;7247;53.330;-1.180;2023-07-29T06:16:21;9.47;;;2.77;;
14326;SDS011;7247;53.330;-1.180;2023-07-29T06:18:48;8.40;;;2.80;;
14326;SDS011;7247;53.330;-1.180;2023-07-29T06:21:14;5.70;;;2.67;;
14326;SDS011;7247;53.330;-1.180;2023-07-29T06:23:42;7.90;;;3.10;;
14326;SDS011;7247;53.330;-1.180;2023-07-29T06:26:08;6.97;;;2.80;;
14326;SDS011;7247;53.330;-1.180;2023-07-29T06:28:35;6.33;;;2.93;;
14326;SDS011;7247;53.330;-1.180;2023-07-29T06:31:01;6.00;;;2.60;;
14326;SDS011;7247;53.330;-1.180;2023-07-29T06:33:29;8.80;;;2.93;;
14326;SDS011;7247;53.330;-1.180;2023-07-29T06:35:55;7.23;;;2.80;;
14326;SDS011;7247;53.330;-1.180;2023-07-29T06:38:22;7.20;;;2.67;;
14326;SDS011;7247;53.330;-1.180;2023-07-29T06:40:48;6.73;;;2.97;;
14326;SDS011;7247;53.330;-1.180;2023-07-29T06:43:15;9.23;;;2.23;;
14326;SDS011;7247;53.330;-1.180;2023-07-29T06:45:41;8.33;;;2.90;;
14326;SDS011;7247;53.330;-1.180;2023-07-29T06:48:08;5.87;;;2.27;;
14326;SDS011;7247;53.330;-1.180;2023-07-29T06:50:35;7.57;;;2.60;;
14326;SDS011;7247;53.330;-1.180;2023-07-29T06:53:03;6.83;;;2.77;;
14326;SDS011;7247;53.330;-1.180;2023-07-29T06:55:29;9.30;;;2.70;;
14326;SDS011;7247;53.330;-1.180;2023-07-29T06:57:55;7.23;;;2.70;;
14326;SDS011;7247;53.330;-1.180;2023-07-29T07:00:22;5.83;;;2.40;;
14326;SDS011;7247;53.330;-1.180;2023-07-29T07:02:48;5.10;;;2.57;;
14326;SDS011;7247;53.330;-1.180;2023-07-29T07:05:15;6.23;;;2.77;;
14326;SDS011;7247;53.330;-1.180;2023-07-29T07:07:42;6.10;;;2.70;;
14326;SDS011;7247;53.330;-1.180;2023-07-29T07:10:09;4.07;;;2.20;;
14326;SDS011;7247;53.330;-1.180;2023-07-29T07:12:36;7.00;;;2.57;;
14326;SDS011;7247;53.330;-1.180;2023-07-29T07:15:02;8.40;;;2.67;;
14326;SDS011;7247;53.330;-1.180;2023-07-29T07:17:29;6.77;;;2.13;;
14326;SDS011;7247;53.330;-1.180;2023-07-29T07:19:55;5.97;;;2.63;;
14326;SDS011;7247;53.330;-1.180;2023-07-29T07:22:21;10.00;;;2.87;;
14326;SDS011;7247;53.330;-1.180;2023-07-29T07:24:50;9.83;;;2.80;;
14326;SDS011;7247;53.330;-1.180;2023-07-29T07:27:16;5.30;;;2.57;;
14326;SDS011;7247;53.330;-1.180;2023-07-29T07:29:43;6.00;;;2.57;;
14326;SDS011;7247;53.330;-1.180;2023-07-29T07:32:09;5.40;;;2.40;;
14326;SDS011;7247;53.330;-1.180;2023-07-29T07:34:36;6.30;;;2.87;;
14326;SDS011;7247;53.330;-1.180;2023-07-29T07:37:02;5.63;;;2.67;;
14326;SDS011;7247;53.330;-1.180;2023-07-29T07:39:29;7.83;;;2.50;;
14326;SDS011;7247;53.330;-1.180;2023-07-29T07:41:57;5.73;;;2.97;;
14326;SDS011;7247;53.330;-1.180;2023-07-29T07:44:23;6.80;;;2.43;;
14326;SDS011;7247;53.330;-1.180;2023-07-29T07:46:51;5.07;;;2.37;;
14326;SDS011;7247;53.330;-1.180;2023-07-29T07:49:18;5.93;;;2.40;;
14326;SDS011;7247;53.330;-1.180;2023-07-29T07:51:45;4.57;;;2.30;;
14326;SDS011;7247;53.330;-1.180;2023-07-29T07:54:11;6.03;;;2.47;;
14326;SDS011;7247;53.330;-1.180;2023-07-29T07:56:37;7.27;;;2.50;;
14326;SDS011;7247;53.330;-1.180;2023-07-29T07:59:05;4.70;;;2.33;;
14326;SDS011;7247;53.330;-1.180;2023-07-29T08:01:33;4.87;;;2.60;;
14326;SDS011;7247;53.330;-1.180;2023-07-29T08:04:00;6.43;;;2.57;;
14326;SDS011;7247;53.330;-1.180;2023-07-29T08:06:26;5.27;;;2.70;;
14326;SDS011;7247;53.330;-1.180;2023-07-29T08:08:53;4.57;;;2.17;;
14326;SDS011;7247;53.330;-1.180;2023-07-29T08:11:19;6.03;;;2.93;;
14326;SDS011;7247;53.330;-1.180;2023-07-29T08:13:46;7.40;;;2.40;;
14326;SDS011;7247;53.330;-1.180;2023-07-29T08:16:13;6.37;;;2.60;;
14326;SDS011;7247;53.330;-1.180;2023-07-29T08:18:40;6.07;;;2.93;;
14326;SDS011;7247;53.330;-1.180;2023-07-29T08:21:06;6.67;;;2.60;;
14326;SDS011;7247;53.330;-1.180;2023-07-29T08:23:33;4.80;;;2.40;;
14326;SDS011;7247;53.330;-1.180;2023-07-29T08:26:01;7.20;;;2.63;;
14326;SDS011;7247;53.330;-1.180;2023-07-29T08:28:29;5.70;;;2.30;;
14326;SDS011;7247;53.330;-1.180;2023-07-29T08:30:56;6.53;;;2.40;;
14326;SDS011;7247;53.330;-1.180;2023-07-29T08:33:24;5.40;;;2.23;;
14326;SDS011;7247;53.330;-1.180;2023-07-29T08:35:51;5.70;;;2.20;;
14326;SDS011;7247;53.330;-1.180;2023-07-29T08:38:17;3.63;;;1.53;;
14326;SDS011;7247;53.330;-1.180;2023-07-29T08:40:45;7.20;;;2.00;;
14326;SDS011;7247;53.330;-1.180;2023-07-29T08:43:12;3.73;;;1.80;;
14326;SDS011;7247;53.330;-1.180;2023-07-29T08:45:40;5.73;;;2.20;;
14326;SDS011;7247;53.330;-1.180;2023-07-29T08:48:07;4.60;;;2.20;;
14326;SDS011;7247;53.330;-1.180;2023-07-29T08:50:36;4.03;;;2.07;;
14326;SDS011;7247;53.330;-1.180;2023-07-29T08:53:03;5.03;;;2.00;;
14326;SDS011;7247;53.330;-1.180;2023-07-29T08:55:30;4.43;;;1.80;;
14326;SDS011;7247;53.330;-1.180;2023-07-29T08:57:56;3.77;;;2.20;;
14326;SDS011;7247;53.330;-1.180;2023-07-29T09:00:23;3.13;;;2.10;;
14326;SDS011;7247;53.330;-1.180;2023-07-29T09:02:50;6.00;;;2.30;;
14326;SDS011;7247;53.330;-1.180;2023-07-29T09:05:16;6.00;;;2.40;;
14326;SDS011;7247;53.330;-1.180;2023-07-29T09:07:44;6.73;;;2.30;;
14326;SDS011;7247;53.330;-1.180;2023-07-29T09:10:11;4.70;;;1.90;;
14326;SDS011;7247;53.330;-1.180;2023-07-29T09:12:39;3.47;;;1.60;;
14326;SDS011;7247;53.330;-1.180;2023-07-29T09:15:06;4.97;;;2.10;;
14326;SDS011;7247;53.330;-1.180;2023-07-29T09:17:33;4.27;;;1.70;;
14326;SDS011;7247;53.330;-1.180;2023-07-29T09:19:59;4.37;;;1.90;;
14326;SDS011;7247;53.330;-1.180;2023-07-29T09:22:26;5.00;;;1.60;;
14326;SDS011;7247;53.330;-1.180;2023-07-29T09:24:54;3.83;;;1.80;;
14326;SDS011;7247;53.330;-1.180;2023-07-29T09:27:23;2.97;;;1.57;;
14326;SDS011;7247;53.330;-1.180;2023-07-29T09:29:49;4.63;;;1.90;;
14326;SDS011;7247;53.330;-1.180;2023-07-29T09:32:19;5.07;;;1.60;;
14326;SDS011;7247;53.330;-1.180;2023-07-29T09:34:46;4.80;;;1.60;;
14326;SDS011;7247;53.330;-1.180;2023-07-29T09:37:16;3.80;;;1.60;;
14326;SDS011;7247;53.330;-1.180;2023-07-29T09:39:46;3.07;;;1.37;;
14326;SDS011;7247;53.330;-1.180;2023-07-29T09:42:18;4.10;;;1.80;;
14326;SDS011;7247;53.330;-1.180;2023-07-29T09:44:45;7.27;;;2.10;;
14326;SDS011;7247;53.330;-1.180;2023-07-29T09:47:18;3.80;;;1.70;;
14326;SDS011;7247;53.330;-1.180;2023-07-29T09:49:45;2.63;;;1.60;;
14326;SDS011;7247;53.330;-1.180;2023-07-29T09:52:11;4.70;;;1.80;;
14326;SDS011;7247;53.330;-1.180;2023-07-29T09:54:38;5.47;;;1.77;;
14326;SDS011;7247;53.330;-1.180;2023-07-29T09:57:04;3.80;;;1.77;;
14326;SDS011;7247;53.330;-1.180;2023-07-29T09:59:34;2.57;;;1.60;;
14326;SDS011;7247;53.330;-1.180;2023-07-29T10:02:01;7.57;;;2.10;;
14326;SDS011;7247;53.330;-1.180;2023-07-29T10:04:27;4.37;;;1.87;;
14326;SDS011;7247;53.330;-1.180;2023-07-29T10:06:55;4.37;;;1.70;;
14326;SDS011;7247;53.330;-1.180;2023-07-29T10:09:22;4.10;;;1.70;;
14326;SDS011;7247;53.330;-1.180;2023-07-29T10:11:49;4.47;;;1.50;;
14326;SDS011;7247;53.330;-1.180;2023-07-29T10:14:18;7.77;;;2.60;;
14326;SDS011;7247;53.330;-1.180;2023-07-29T10:16:46;3.60;;;1.90;;
14326;SDS011;7247;53.330;-1.180;2023-07-29T10:19:13;4.83;;;1.80;;
14326;SDS011;7247;53.330;-1.180;2023-07-29T10:21:41;3.10;;;1.80;;
14326;SDS011;7247;53.330;-1.180;2023-07-29T10:24:11;3.83;;;2.30;;
14326;SDS011;7247;53.330;-1.180;2023-07-29T10:26:40;6.57;;;1.83;;
14326;SDS011;7247;53.330;-1.180;2023-07-29T10:29:08;5.00;;;1.80;;
14326;SDS011;7247;53.330;-1.180;2023-07-29T10:31:36;5.63;;;2.03;;
14326;SDS011;7247;53.330;-1.180;2023-07-29T10:34:04;4.83;;;2.40;;
14326;SDS011;7247;53.330;-1.180;2023-07-29T10:36:31;3.37;;;1.40;;
14326;SDS011;7247;53.330;-1.180;2023-07-29T10:38:57;3.27;;;1.70;;
14326;SDS011;7247;53.330;-1.180;2023-07-29T10:41:24;6.77;;;2.23;;
14326;SDS011;7247;53.330;-1.180;2023-07-29T10:46:51;4.30;;;1.83;;
14326;SDS011;7247;53.330;-1.180;2023-07-29T10:49:19;6.67;;;2.53;;
14326;SDS011;7247;53.330;-1.180;2023-07-29T10:51:49;4.77;;;1.97;;
14326;SDS011;7247;53.330;-1.180;2023-07-29T10:54:15;4.17;;;1.90;;
14326;SDS011;7247;53.330;-1.180;2023-07-29T10:56:42;5.67;;;2.47;;
14326;SDS011;7247;53.330;-1.180;2023-07-29T11:01:56;8.10;;;3.10;;
14326;SDS011;7247;53.330;-1.180;2023-07-29T11:04:25;4.47;;;1.90;;
14326;SDS011;7247;53.330;-1.180;2023-07-29T11:09:40;7.03;;;2.40;;
14326;SDS011;7247;53.330;-1.180;2023-07-29T11:14:48;6.13;;;1.90;;
14326;SDS011;7247;53.330;-1.180;2023-07-29T11:17:14;7.13;;;1.93;;
14326;SDS011;7247;53.330;-1.180;2023-07-29T11:19:42;6.50;;;2.10;;
14326;SDS011;7247;53.330;-1.180;2023-07-29T11:22:09;4.73;;;1.70;;
14326;SDS011;7247;53.330;-1.180;2023-07-29T11:24:36;3.33;;;1.70;;
14326;SDS011;7247;53.330;-1.180;2023-07-29T11:27:02;4.23;;;1.77;;
14326;SDS011;7247;53.330;-1.180;2023-07-29T11:29:28;4.50;;;1.50;;
14326;SDS011;7247;53.330;-1.180;2023-07-29T11:31:55;5.43;;;1.57;;
14326;SDS011;7247;53.330;-1.180;2023-07-29T11:34:30;6.93;;;2.00;;
14326;SDS011;7247;53.330;-1.180;2023-07-29T11:36:58;3.67;;;1.70;;
14326;SDS011;7247;53.330;-1.180;2023-07-29T11:39:24;4.13;;;1.50;;
14326;SDS011;7247;53.330;-1.180;2023-07-29T11:41:51;4.73;;;3.23;;
14326;SDS011;7247;53.330;-1.180;2023-07-29T11:44:17;7.27;;;3.30;;
14326;SDS011;7247;53.330;-1.180;2023-07-29T11:46:44;9.50;;;2.43;;
14326;SDS011;7247;53.330;-1.180;2023-07-29T11:49:10;5.80;;;2.73;;
14326;SDS011;7247;53.330;-1.180;2023-07-29T11:51:36;5.33;;;1.90;;
14326;SDS011;7247;53.330;-1.180;2023-07-29T11:54:04;6.07;;;2.03;;
14326;SDS011;7247;53.330;-1.180;2023-07-29T11:56:31;7.23;;;2.17;;
14326;SDS011;7247;53.330;-1.180;2023-07-29T11:58:58;5.37;;;1.93;;
14326;SDS011;7247;53.330;-1.180;2023-07-29T12:01:25;7.17;;;1.93;;
14326;SDS011;7247;53.330;-1.180;2023-07-29T12:03:52;6.37;;;2.27;;
14326;SDS011;7247;53.330;-1.180;2023-07-29T12:06:18;4.83;;;2.20;;
14326;SDS011;7247;53.330;-1.180;2023-07-29T12:08:45;5.13;;;2.20;;
14326;SDS011;7247;53.330;-1.180;2023-07-29T12:11:12;5.67;;;2.10;;
14326;SDS011;7247;53.330;-1.180;2023-07-29T12:13:41;6.23;;;2.40;;
14326;SDS011;7247;53.330;-1.180;2023-07-29T12:16:07;6.57;;;2.10;;
14326;SDS011;7247;53.330;-1.180;2023-07-29T12:18:34;5.43;;;1.70;;
14326;SDS011;7247;53.330;-1.180;2023-07-29T12:21:00;6.63;;;1.83;;
14326;SDS011;7247;53.330;-1.180;2023-07-29T12:23:27;4.60;;;1.53;;
14326;SDS011;7247;53.330;-1.180;2023-07-29T12:25:56;5.70;;;1.80;;
14326;SDS011;7247;53.330;-1.180;2023-07-29T12:28:24;5.93;;;1.70;;
14326;SDS011;7247;53.330;-1.180;2023-07-29T12:30:52;6.60;;;1.93;;
14326;SDS011;7247;53.330;-1.180;2023-07-29T12:33:31;4.30;;;1.77;;
14326;SDS011;7247;53.330;-1.180;2023-07-29T12:35:58;5.70;;;2.00;;
14326;SDS011;7247;53.330;-1.180;2023-07-29T12:38:28;3.90;;;1.80;;
14326;SDS011;7247;53.330;-1.180;2023-07-29T12:40:55;5.87;;;1.87;;
14326;SDS011;7247;53.330;-1.180;2023-07-29T12:43:21;4.93;;;1.63;;
14326;SDS011;7247;53.330;-1.180;2023-07-29T12:45:50;6.80;;;2.13;;
14326;SDS011;7247;53.330;-1.180;2023-07-29T12:48:16;6.83;;;1.93;;
14326;SDS011;7247;53.330;-1.180;2023-07-29T12:50:43;5.07;;;1.60;;
14326;SDS011;7247;53.330;-1.180;2023-07-29T12:53:09;4.17;;;1.67;;
14326;SDS011;7247;53.330;-1.180;2023-07-29T12:55:36;3.97;;;1.67;;
14326;SDS011;7247;53.330;-1.180;2023-07-29T12:58:02;5.47;;;1.50;;
14326;SDS011;7247;53.330;-1.180;2023-07-29T13:00:29;5.70;;;1.70;;
14326;SDS011;7247;53.330;-1.180;2023-07-29T13:02:57;3.20;;;1.33;;
14326;SDS011;7247;53.330;-1.180;2023-07-29T13:05:23;5.03;;;1.60;;
14326;SDS011;7247;53.330;-1.180;2023-07-29T13:07:49;5.23;;;1.90;;
14326;SDS011;7247;53.330;-1.180;2023-07-29T13:10:16;5.87;;;1.97;;
14326;SDS011;7247;53.330;-1.180;2023-07-29T13:12:43;5.67;;;2.00;;
14326;SDS011;7247;53.330;-1.180;2023-07-29T13:15:10;5.30;;;1.63;;
14326;SDS011;7247;53.330;-1.180;2023-07-29T13:17:36;4.10;;;1.53;;
14326;SDS011;7247;53.330;-1.180;2023-07-29T13:20:06;3.23;;;1.40;;
14326;SDS011;7247;53.330;-1.180;2023-07-29T13:22:33;3.10;;;1.33;;
14326;SDS011;7247;53.330;-1.180;2023-07-29T13:24:59;4.00;;;1.33;;
14326;SDS011;7247;53.330;-1.180;2023-07-29T13:27:26;5.53;;;1.80;;
14326;SDS011;7247;53.330;-1.180;2023-07-29T13:29:52;4.83;;;1.70;;
14326;SDS011;7247;53.330;-1.180;2023-07-29T13:32:19;7.40;;;1.90;;
14326;SDS011;7247;53.330;-1.180;2023-07-29T13:34:45;7.03;;;1.77;;
14326;SDS011;7247;53.330;-1.180;2023-07-29T13:37:13;6.53;;;1.77;;
14326;SDS011;7247;53.330;-1.180;2023-07-29T13:39:39;5.10;;;1.80;;
14326;SDS011;7247;53.330;-1.180;2023-07-29T13:42:06;3.00;;;1.50;;
14326;SDS011;7247;53.330;-1.180;2023-07-29T13:44:32;4.93;;;1.50;;
14326;SDS011;7247;53.330;-1.180;2023-07-29T13:47:01;4.63;;;1.73;;
14326;SDS011;7247;53.330;-1.180;2023-07-29T13:49:30;3.73;;;1.63;;
14326;SDS011;7247;53.330;-1.180;2023-07-29T13:51:56;6.32;;;1.75;;
14326;SDS011;7247;53.330;-1.180;2023-07-29T13:54:24;4.80;;;1.80;;
14326;SDS011;7247;53.330;-1.180;2023-07-29T13:56:50;7.82;;;2.00;;
14326;SDS011;7247;53.330;-1.180;2023-07-29T13:59:19;4.93;;;2.00;;
14326;SDS011;7247;53.330;-1.180;2023-07-29T14:01:45;4.70;;;2.00;;
14326;SDS011;7247;53.330;-1.180;2023-07-29T14:04:12;3.67;;;1.50;;
14326;SDS011;7247;53.330;-1.180;2023-07-29T14:06:38;3.93;;;1.87;;
14326;SDS011;7247;53.330;-1.180;2023-07-29T14:09:04;3.20;;;1.75;;
14326;SDS011;7247;53.330;-1.180;2023-07-29T14:11:32;5.38;;;1.67;;
14326;SDS011;7247;53.330;-1.180;2023-07-29T14:13:58;3.30;;;1.55;;
14326;SDS011;7247;53.330;-1.180;2023-07-29T14:16:25;2.88;;;1.40;;
14326;SDS011;7247;53.330;-1.180;2023-07-29T14:18:51;3.95;;;1.70;;
14326;SDS011;7247;53.330;-1.180;2023-07-29T14:21:18;3.70;;;1.75;;
14326;SDS011;7247;53.330;-1.180;2023-07-29T14:23:44;3.58;;;1.65;;
14326;SDS011;7247;53.330;-1.180;2023-07-29T14:26:10;5.32;;;1.73;;
14326;SDS011;7247;53.330;-1.180;2023-07-29T14:28:38;3.17;;;1.42;;
14326;SDS011;7247;53.330;-1.180;2023-07-29T14:31:04;6.20;;;1.70;;
14326;SDS011;7247;53.330;-1.180;2023-07-29T14:33:31;3.97;;;1.30;;
14326;SDS011;7247;53.330;-1.180;2023-07-29T14:35:57;6.60;;;1.80;;
14326;SDS011;7247;53.330;-1.180;2023-07-29T14:38:24;6.37;;;1.70;;
14326;SDS011;7247;53.330;-1.180;2023-07-29T14:40:51;3.57;;;1.30;;
14326;SDS011;7247;53.330;-1.180;2023-07-29T14:43:19;3.57;;;1.50;;
14326;SDS011;7247;53.330;-1.180;2023-07-29T14:45:47;4.07;;;1.30;;
14326;SDS011;7247;53.330;-1.180;2023-07-29T14:48:13;3.17;;;1.47;;
14326;SDS011;7247;53.330;-1.180;2023-07-29T14:50:40;4.63;;;1.48;;
14326;SDS011;7247;53.330;-1.180;2023-07-29T14:53:06;2.85;;;1.25;;
14326;SDS011;7247;53.330;-1.180;2023-07-29T14:55:33;6.07;;;1.60;;
14326;SDS011;7247;53.330;-1.180;2023-07-29T14:57:59;4.72;;;1.63;;